Time;durP1;ratioP1;P1;durP2;ratioP2;P2;SDS_P1;SDS_P2;PMS_P1;PMS_P2;Temp;Humidity;BMP_temperature;BMP_pressure;BME280_temperature;BME280_humidity;BME280_pressure;Samples;Min_cycle;Max_cycle;Signal;HPM_P1;HPM_P2
2023/07/23 00:01:14;;;;;;;2.40;2.05;;;15.90;83.60;16.00;100236.00;;;;4955006;28;111508;-65
2023/07/23 00:03:40;;;;;;;3.22;2.20;;;16.00;83.70;16.00;100232.00;;;;4949186;28;106544;-66
2023/07/23 00:06:06;;;;;;;2.08;1.88;;;16.00;84.00;16.10;100227.00;;;;4953066;28;117672;-66
2023/07/23 00:08:31;;;;;;;1.88;1.63;;;16.00;84.20;16.10;100235.00;;;;4952724;28;90952;-66
2023/07/23 00:10:57;;;;;;;2.63;1.75;;;16.00;84.20;16.00;100222.00;;;;4951592;28;87924;-64
2023/07/23 00:13:24;;;;;;;2.58;1.52;;;16.00;84.20;16.00;100221.00;;;;4952868;28;108713;-64
2023/07/23 00:15:49;;;;;;;2.97;2.25;;;15.90;84.40;16.00;100220.00;;;;4952637;28;106651;-65
2023/07/23 00:18:15;;;;;;;2.63;1.80;;;15.90;84.60;16.00;100223.00;;;;4953242;28;118266;-64
2023/07/23 00:20:41;;;;;;;2.25;1.48;;;15.90;84.80;16.10;100212.00;;;;4953939;28;110479;-65
2023/07/23 00:23:06;;;;;;;2.63;1.77;;;16.00;85.20;16.10;100213.00;;;;4951379;28;88929;-64
2023/07/23 00:25:32;;;;;;;1.70;1.50;;;16.00;85.10;16.10;100205.00;;;;4948994;28;117109;-65
2023/07/23 00:27:58;;;;;;;5.22;2.03;;;16.00;85.10;16.00;100202.00;;;;4947992;28;109609;-65
2023/07/23 00:30:23;;;;;;;2.47;1.65;;;16.00;85.10;16.00;100202.00;;;;4950637;28;110005;-66
2023/07/23 00:32:49;;;;;;;2.92;2.45;;;16.00;85.30;16.00;100195.00;;;;4949208;28;106657;-65
2023/07/23 00:35:15;;;;;;;2.25;1.75;;;15.90;85.40;16.00;100197.00;;;;4949160;28;115996;-66
2023/07/23 00:37:40;;;;;;;2.28;1.73;;;15.90;85.60;16.00;100197.00;;;;4981146;28;87874;-66
2023/07/23 00:40:07;;;;;;;3.45;2.03;;;15.90;85.70;15.90;100197.00;;;;4947642;28;110058;-65
2023/07/23 00:42:33;;;;;;;3.30;2.20;;;16.00;85.80;15.90;100198.00;;;;4951265;28;87903;-65
2023/07/23 00:44:59;;;;;;;3.38;1.65;;;15.80;85.80;15.90;100190.00;;;;4948447;28;89333;-65
2023/07/23 00:47:25;;;;;;;1.38;1.25;;;15.80;86.00;15.80;100181.00;;;;4951055;28;89477;-65
2023/07/23 00:49:51;;;;;;;2.67;1.58;;;15.80;86.40;15.80;100177.00;;;;4951678;28;109769;-65
2023/07/23 00:52:17;;;;;;;1.38;1.27;;;15.70;86.80;15.80;100180.00;;;;4949987;28;88272;-65
2023/07/23 00:54:43;;;;;;;1.92;1.65;;;15.70;87.20;15.80;100176.00;;;;4948745;28;118116;-65
2023/07/23 00:57:11;;;;;;;1.95;1.33;;;15.70;87.50;15.80;100172.00;;;;4950530;28;118278;-65
2023/07/23 00:59:38;;;;;;;3.63;1.90;;;15.70;87.50;15.80;100167.00;;;;4949797;28;87690;-65
2023/07/23 01:02:04;;;;;;;2.50;1.30;;;15.70;87.70;15.80;100167.00;;;;4948886;28;108325;-66
2023/07/23 01:04:32;;;;;;;3.92;1.77;;;15.70;87.80;15.80;100163.00;;;;4948195;28;86898;-66
2023/07/23 01:07:02;;;;;;;1.90;1.80;;;15.60;87.80;15.80;100155.00;;;;4949041;28;111982;-64
2023/07/23 01:09:29;;;;;;;1.80;1.67;;;15.70;88.00;15.80;100156.00;;;;4947800;28;87831;-64
2023/07/23 01:11:57;;;;;;;1.52;1.40;;;15.70;88.40;15.80;100152.00;;;;4944374;28;107385;-65
2023/07/23 01:14:23;;;;;;;2.10;1.38;;;15.70;88.40;15.70;100146.00;;;;4943636;28;117726;-65
2023/07/23 01:16:48;;;;;;;1.90;1.80;;;15.60;88.40;15.70;100151.00;;;;4949432;28;116485;-65
2023/07/23 01:19:15;;;;;;;6.03;2.00;;;15.70;88.60;15.70;100151.00;;;;4945570;28;101263;-65
2023/07/23 01:21:41;;;;;;;2.42;1.52;;;15.70;89.00;15.80;100154.00;;;;4947769;28;92990;-64
2023/07/23 01:24:07;;;;;;;1.98;1.80;;;15.70;89.00;15.70;100147.00;;;;4948819;28;117466;-64
2023/07/23 01:26:33;;;;;;;2.72;1.90;;;15.70;89.90;15.80;100153.00;;;;4948477;28;97406;-64
2023/07/23 01:28:58;;;;;;;3.80;2.40;;;15.70;89.90;15.80;100139.00;;;;4946930;28;110738;-64
2023/07/23 01:31:24;;;;;;;2.63;1.83;;;15.70;89.90;15.80;100147.00;;;;4948242;28;109890;-65
2023/07/23 01:33:50;;;;;;;2.40;1.60;;;15.70;89.90;15.80;100138.00;;;;4949257;28;116560;-65
2023/07/23 01:36:16;;;;;;;3.00;1.73;;;15.70;90.00;15.80;100145.00;;;;4944315;28;117207;-65
2023/07/23 01:38:42;;;;;;;3.08;1.95;;;15.70;90.00;15.90;100138.00;;;;4961573;28;110325;-65
2023/07/23 01:41:08;;;;;;;1.48;1.30;;;15.70;90.00;15.90;100137.00;;;;4948256;28;110370;-65
2023/07/23 01:43:34;;;;;;;1.25;1.15;;;15.70;90.00;15.90;100137.00;;;;4949203;28;107275;-65
2023/07/23 01:46:00;;;;;;;1.45;1.33;;;15.80;90.10;15.90;100133.00;;;;4949401;28;118139;-66
2023/07/23 01:48:25;;;;;;;2.05;1.70;;;15.80;90.10;15.90;100125.00;;;;4948792;28;105873;-65
2023/07/23 01:50:51;;;;;;;1.10;1.00;;;15.80;90.20;15.90;100120.00;;;;4948178;28;107936;-65
2023/07/23 01:53:17;;;;;;;1.73;1.35;;;15.80;90.20;15.90;100131.00;;;;4946751;28;116934;-66
2023/07/23 01:55:42;;;;;;;2.13;1.63;;;15.80;90.10;15.90;100122.00;;;;4946707;28;116489;-65
2023/07/23 01:58:08;;;;;;;3.13;1.88;;;15.90;90.30;15.90;100116.00;;;;4944891;28;110451;-66
2023/07/23 02:00:34;;;;;;;1.23;1.10;;;15.90;90.40;16.00;100113.00;;;;4949377;28;108832;-66
2023/07/23 02:02:59;;;;;;;1.63;1.15;;;15.90;90.40;16.00;100118.00;;;;4948087;28;118130;-65
2023/07/23 02:05:25;;;;;;;1.40;1.20;;;15.90;90.50;16.10;100106.00;;;;4949962;28;117308;-65
2023/07/23 02:07:51;;;;;;;1.92;1.40;;;15.90;90.50;16.10;100108.00;;;;4958790;28;109297;-65
2023/07/23 02:10:19;;;;;;;2.90;1.58;;;15.90;90.40;16.20;100108.00;;;;4950934;28;108186;-65
2023/07/23 02:12:44;;;;;;;1.73;1.30;;;16.00;90.50;16.20;100118.00;;;;4948035;28;109780;-66
2023/07/23 02:15:11;;;;;;;1.55;1.27;;;16.10;90.50;16.30;100116.00;;;;4949053;28;117851;-65
2023/07/23 02:17:37;;;;;;;1.80;1.65;;;16.10;90.50;16.40;100122.00;;;;4949386;28;87452;-66
2023/07/23 02:20:04;;;;;;;4.93;1.95;;;16.20;90.50;16.40;100119.00;;;;4947992;28;96294;-65
2023/07/23 02:22:30;;;;;;;2.20;1.25;;;16.30;90.50;16.50;100115.00;;;;4948687;28;88177;-66
2023/07/23 02:24:55;;;;;;;2.60;1.13;;;16.30;90.40;16.50;100114.00;;;;4950018;28;88745;-65
2023/07/23 02:27:21;;;;;;;2.70;1.67;;;16.40;90.40;16.60;100116.00;;;;4944836;28;111162;-65
2023/07/23 02:29:47;;;;;;;1.77;1.33;;;16.40;90.30;16.70;100114.00;;;;4950541;28;87799;-64
2023/07/23 02:32:13;;;;;;;1.55;1.45;;;16.50;90.30;16.70;100114.00;;;;4946805;28;117572;-65
2023/07/23 02:34:38;;;;;;;2.38;1.40;;;16.60;90.30;16.80;100113.00;;;;4947713;28;117754;-65
2023/07/23 02:37:05;;;;;;;1.13;1.10;;;16.60;90.20;16.80;100112.00;;;;4945501;28;111565;-65
2023/07/23 02:39:30;;;;;;;1.75;1.30;;;16.70;90.20;16.90;100105.00;;;;4948513;28;88067;-65
2023/07/23 02:41:56;;;;;;;1.33;1.23;;;16.70;90.10;16.90;100112.00;;;;4951181;28;116623;-65
2023/07/23 02:44:22;;;;;;;1.25;1.10;;;16.80;90.10;17.00;100112.00;;;;4946951;28;116812;-65
2023/07/23 02:46:47;;;;;;;2.55;1.45;;;16.80;90.00;17.00;100122.00;;;;4953652;28;103702;-65
2023/07/23 02:49:13;;;;;;;1.17;1.00;;;16.90;90.00;17.10;100122.00;;;;4947945;28;88675;-66
2023/07/23 02:51:39;;;;;;;1.67;1.35;;;16.90;90.00;17.10;100122.00;;;;4947609;28;117357;-65
2023/07/23 02:54:05;;;;;;;2.15;1.95;;;17.00;89.90;17.10;100132.00;;;;4944897;28;88498;-65
2023/07/23 02:56:30;;;;;;;0.70;0.70;;;17.00;89.70;17.20;100120.00;;;;4948726;28;110853;-67
2023/07/23 02:58:56;;;;;;;1.73;1.10;;;17.00;89.60;17.20;100118.00;;;;4947352;28;109129;-65
2023/07/23 03:01:22;;;;;;;2.38;1.27;;;17.10;89.50;17.20;100116.00;;;;4952840;28;117417;-65
2023/07/23 03:03:59;;;;;;;1.38;1.27;;;17.10;89.30;17.30;100132.00;;;;4944097;28;117131;-65
2023/07/23 03:06:26;;;;;;;2.17;1.17;;;17.10;89.20;17.30;100125.00;;;;4946023;28;103010;-65
2023/07/23 03:08:57;;;;;;;4.32;1.52;;;17.20;89.00;17.40;100130.00;;;;4948268;28;107140;-65
2023/07/23 03:11:23;;;;;;;1.23;0.95;;;17.20;88.90;17.40;100129.00;;;;4945917;28;118322;-64
2023/07/23 03:13:49;;;;;;;1.23;1.13;;;17.30;88.90;17.50;100126.00;;;;4945843;28;116803;-64
2023/07/23 03:16:14;;;;;;;0.80;0.80;;;17.30;88.80;17.50;100128.00;;;;4946137;28;110960;-65
2023/07/23 03:18:40;;;;;;;2.70;1.20;;;17.40;88.60;17.50;100124.00;;;;4949398;28;107732;-65
2023/07/23 03:21:06;;;;;;;4.07;2.22;;;17.40;88.50;17.50;100132.00;;;;4952571;28;95473;-65
2023/07/23 03:23:31;;;;;;;1.95;1.33;;;17.40;88.30;17.60;100132.00;;;;4946908;28;93820;-65
2023/07/23 03:25:57;;;;;;;1.45;1.25;;;17.40;88.30;17.60;100130.00;;;;4946670;28;88389;-65
2023/07/23 03:28:28;;;;;;;1.65;1.48;;;17.50;88.20;17.60;100116.00;;;;4947043;28;108065;-64
2023/07/23 03:30:54;;;;;;;1.83;1.20;;;17.80;88.40;17.60;100126.00;;;;4946517;28;100127;-65
2023/07/23 03:33:20;;;;;;;1.10;1.00;;;17.50;88.00;17.60;100125.00;;;;4945266;28;115356;-66
2023/07/23 03:35:45;;;;;;;2.15;1.02;;;17.50;88.00;17.60;100135.00;;;;4947968;28;109441;-65
2023/07/23 03:38:11;;;;;;;1.40;1.27;;;17.50;88.20;17.60;100125.00;;;;4943120;28;107654;-66
2023/07/23 03:40:37;;;;;;;1.92;1.23;;;17.50;88.10;17.60;100131.00;;;;4947888;28;117793;-65
2023/07/23 03:43:03;;;;;;;0.90;0.90;;;17.40;88.20;17.60;100141.00;;;;4980319;28;96612;-64
2023/07/23 03:45:34;;;;;;;5.75;1.60;;;17.40;88.40;17.50;100144.00;;;;4947834;28;87591;-65
2023/07/23 03:48:00;;;;;;;2.33;1.13;;;17.40;88.50;17.50;100146.00;;;;4948084;28;88164;-65
2023/07/23 03:50:26;;;;;;;1.15;1.05;;;17.40;88.60;17.50;100140.00;;;;4945652;28;118185;-65
2023/07/23 03:52:52;;;;;;;1.30;1.15;;;17.40;88.70;17.50;100147.00;;;;4945889;28;116518;-66
2023/07/23 03:55:19;;;;;;;2.47;1.50;;;17.40;89.00;17.50;100135.00;;;;4947604;28;87217;-65
2023/07/23 03:57:45;;;;;;;1.30;1.20;;;17.40;89.00;17.50;100140.00;;;;4947970;28;88014;-65
2023/07/23 04:00:12;;;;;;;1.55;1.05;;;17.40;89.10;17.50;100140.00;;;;4947223;28;118500;-65
2023/07/23 04:02:37;;;;;;;1.13;1.00;;;17.40;89.30;17.50;100146.00;;;;4949305;28;88992;-66
2023/07/23 04:05:03;;;;;;;1.17;1.08;;;17.40;89.30;17.50;100151.00;;;;4953150;28;108584;-65
2023/07/23 04:07:29;;;;;;;1.80;1.08;;;17.40;89.70;17.50;100147.00;;;;4950533;28;98907;-65
2023/07/23 04:09:55;;;;;;;1.35;1.15;;;17.40;89.70;17.50;100155.00;;;;4949776;28;118263;-65
2023/07/23 04:12:21;;;;;;;2.30;1.48;;;17.40;90.00;17.50;100145.00;;;;4951078;28;88334;-65
2023/07/23 04:14:47;;;;;;;1.15;1.00;;;17.40;90.20;17.50;100146.00;;;;4955476;28;88392;-65
2023/07/23 04:17:15;;;;;;;1.75;1.45;;;17.40;90.40;17.50;100153.00;;;;4954427;28;108394;-65
2023/07/23 04:19:40;;;;;;;2.30;1.25;;;17.40;90.60;17.50;100159.00;;;;4925306;28;87377;-65
2023/07/23 04:22:06;;;;;;;1.25;1.15;;;17.40;90.80;17.50;100157.00;;;;4952121;28;115728;-65
2023/07/23 04:24:35;;;;;;;1.60;1.50;;;17.40;91.00;17.50;100146.00;;;;4953129;28;87851;-64
2023/07/23 04:27:00;;;;;;;2.42;1.40;;;17.40;91.20;17.50;100151.00;;;;4954038;28;108728;-65
2023/07/23 04:29:26;;;;;;;1.48;1.30;;;17.40;91.40;17.40;100155.00;;;;4954967;28;118113;-64
2023/07/23 04:31:52;;;;;;;3.90;1.63;;;17.30;91.60;17.40;100153.00;;;;4951378;28;106162;-65
2023/07/23 04:34:17;;;;;;;1.80;1.52;;;17.30;91.80;17.40;100151.00;;;;4952220;28;110081;-65
2023/07/23 04:36:43;;;;;;;1.95;1.42;;;17.30;92.00;17.50;100150.00;;;;4949662;28;108654;-65
2023/07/23 04:39:09;;;;;;;1.45;1.35;;;17.30;92.10;17.50;100148.00;;;;4950239;28;107420;-65
2023/07/23 04:41:35;;;;;;;1.55;1.45;;;17.40;92.30;17.50;100153.00;;;;4955641;28;88600;-65
2023/07/23 04:44:01;;;;;;;1.90;1.50;;;17.40;92.40;17.60;100155.00;;;;4953112;28;87156;-65
2023/07/23 04:46:27;;;;;;;3.50;1.13;;;17.40;92.50;17.60;100151.00;;;;4954545;28;108432;-65
2023/07/23 04:48:53;;;;;;;1.45;1.20;;;17.50;92.60;17.60;100155.00;;;;4947397;28;118485;-65
2023/07/23 04:51:20;;;;;;;2.75;1.60;;;17.50;92.90;17.70;100162.00;;;;4954028;28;89069;-65
2023/07/23 04:53:45;;;;;;;2.50;1.70;;;17.50;93.00;17.70;100153.00;;;;4951077;28;111481;-65
2023/07/23 04:56:11;;;;;;;2.42;1.70;;;17.60;93.00;17.80;100167.00;;;;4951682;28;107604;-66
2023/07/23 04:58:38;;;;;;;3.55;1.20;;;17.70;93.10;17.90;100159.00;;;;4948128;28;88785;-65
2023/07/23 05:01:09;;;;;;;1.58;1.17;;;17.70;93.10;17.90;100165.00;;;;4951584;28;117293;-65
2023/07/23 05:03:36;;;;;;;1.55;1.27;;;17.80;93.10;18.00;100168.00;;;;4948039;28;89691;-66
2023/07/23 05:06:05;;;;;;;2.25;1.60;;;17.80;93.00;18.00;100171.00;;;;4949504;28;87774;-64
2023/07/23 05:08:34;;;;;;;3.08;1.10;;;17.90;93.20;18.10;100173.00;;;;4946295;28;103059;-65
2023/07/23 05:11:02;;;;;;;1.42;1.33;;;17.90;93.40;18.10;100169.00;;;;4944686;28;87950;-65
2023/07/23 05:13:29;;;;;;;1.52;1.20;;;17.90;93.50;18.10;100171.00;;;;4946572;28;88190;-65
2023/07/23 05:15:55;;;;;;;1.50;1.20;;;17.90;93.70;18.10;100173.00;;;;4947814;28;88852;-65
2023/07/23 05:18:23;;;;;;;1.38;1.25;;;17.90;93.90;18.10;100171.00;;;;4950511;28;88411;-65
2023/07/23 05:20:48;;;;;;;1.48;1.38;;;17.90;94.00;18.10;100168.00;;;;4951117;28;87989;-65
2023/07/23 05:23:14;;;;;;;5.15;1.40;;;18.00;94.10;18.20;100173.00;;;;4949767;28;110106;-65
2023/07/23 05:25:39;;;;;;;1.45;1.08;;;18.00;94.20;18.30;100169.00;;;;4946734;28;88000;-66
2023/07/23 05:28:05;;;;;;;1.77;1.05;;;18.10;94.10;18.40;100174.00;;;;4947357;28;116424;-66
2023/07/23 05:30:31;;;;;;;1.75;1.45;;;18.20;94.00;18.40;100172.00;;;;4945061;28;117466;-66
2023/07/23 05:32:57;;;;;;;2.63;1.23;;;18.30;94.10;18.50;100178.00;;;;4946753;28;110475;-66
2023/07/23 05:35:22;;;;;;;1.38;1.13;;;18.30;94.10;18.60;100171.00;;;;4944257;28;108600;-65
2023/07/23 05:37:48;;;;;;;1.48;1.30;;;18.40;94.10;18.70;100177.00;;;;4945663;28;116638;-66
2023/07/23 05:40:14;;;;;;;1.05;0.95;;;18.50;94.00;18.80;100177.00;;;;4946032;28;117461;-65
2023/07/23 05:42:39;;;;;;;2.05;1.33;;;18.60;93.90;18.90;100179.00;;;;4945821;28;110751;-65
2023/07/23 05:45:06;;;;;;;2.15;1.48;;;18.70;93.70;19.00;100172.00;;;;4944626;28;98083;-66
2023/07/23 05:47:31;;;;;;;1.40;0.80;;;18.80;93.50;19.10;100178.00;;;;4946303;28;109858;-66
2023/07/23 05:49:57;;;;;;;1.85;1.00;;;18.90;93.50;19.20;100181.00;;;;4943099;28;118873;-65
2023/07/23 05:52:23;;;;;;;1.30;1.20;;;18.90;93.40;19.20;100181.00;;;;4944395;28;109563;-65
2023/07/23 05:54:48;;;;;;;1.00;0.95;;;19.00;93.60;19.40;100185.00;;;;4941186;28;100077;-65
2023/07/23 05:57:14;;;;;;;1.75;1.23;;;19.20;93.10;19.50;100174.00;;;;4946894;28;114818;-65
2023/07/23 05:59:40;;;;;;;2.58;1.50;;;19.30;92.80;19.70;100172.00;;;;4945661;28;116234;-66
2023/07/23 06:02:06;;;;;;;1.65;0.70;;;19.50;92.40;19.90;100180.00;;;;4948923;28;110592;-65
2023/07/23 06:04:31;;;;;;;1.75;1.42;;;19.60;92.00;20.00;100172.00;;;;4946150;28;95123;-66
2023/07/23 06:06:57;;;;;;;2.80;1.15;;;19.80;91.60;20.20;100169.00;;;;4945939;28;118232;-65
2023/07/23 06:09:23;;;;;;;1.38;1.17;;;19.90;91.20;20.30;100174.00;;;;4941365;28;118505;-66
2023/07/23 06:11:48;;;;;;;1.25;0.90;;;20.00;90.90;20.40;100170.00;;;;4944987;28;87929;-65
2023/07/23 06:14:14;;;;;;;1.63;1.52;;;20.20;90.30;20.50;100165.00;;;;4948666;28;106992;-67
2023/07/23 06:16:39;;;;;;;1.15;1.05;;;20.30;90.20;20.60;100171.00;;;;4946909;28;118044;-64
2023/07/23 06:19:05;;;;;;;6.90;1.67;;;20.30;88.60;20.60;100166.00;;;;4941926;28;117740;-64
2023/07/23 06:21:31;;;;;;;0.95;0.93;;;20.40;88.10;20.60;100162.00;;;;4946455;28;87244;-64
2023/07/23 06:23:57;;;;;;;1.35;1.10;;;20.40;87.60;20.70;100164.00;;;;4945157;28;87834;-65
2023/07/23 06:26:22;;;;;;;4.57;1.40;;;20.50;87.40;20.70;100171.00;;;;4943010;28;117832;-65
2023/07/23 06:28:48;;;;;;;0.90;0.90;;;20.50;87.30;20.70;100163.00;;;;4945238;28;88906;-66
2023/07/23 06:31:14;;;;;;;2.05;1.25;;;20.50;87.30;20.80;100160.00;;;;4945627;28;109982;-64
2023/07/23 06:33:39;;;;;;;1.70;1.10;;;20.60;87.20;20.90;100168.00;;;;4945164;28;109354;-64
2023/07/23 06:36:05;;;;;;;5.25;0.95;;;20.60;86.50;20.90;100163.00;;;;4943391;28;118451;-65
2023/07/23 06:38:31;;;;;;;2.97;1.27;;;20.70;86.30;21.00;100168.00;;;;4944607;28;113713;-65
2023/07/23 06:40:56;;;;;;;3.28;1.33;;;20.80;85.80;21.10;100159.00;;;;4942975;28;110077;-64
2023/07/23 06:43:23;;;;;;;2.35;1.35;;;20.90;85.10;21.20;100169.00;;;;4946460;28;93050;-65
2023/07/23 06:45:51;;;;;;;1.13;1.02;;;21.00;84.90;21.30;100162.00;;;;4947030;28;88413;-65
2023/07/23 06:48:19;;;;;;;1.95;1.30;;;21.10;84.00;21.40;100161.00;;;;4944422;28;87941;-64
2023/07/23 06:50:46;;;;;;;1.33;1.20;;;21.10;83.60;21.40;100155.00;;;;4944713;28;88188;-65
2023/07/23 06:53:13;;;;;;;1.27;1.17;;;21.20;82.50;21.50;100151.00;;;;4945079;28;88982;-65
2023/07/23 06:55:59;;;;;;;1.38;1.10;;;21.20;82.00;21.50;100158.00;;;;4941532;28;88617;-64
2023/07/23 06:58:26;;;;;;;2.28;1.52;;;21.30;82.00;21.60;100147.00;;;;4944416;28;88566;-64
2023/07/23 07:00:52;;;;;;;1.60;1.10;;;21.30;81.80;21.70;100153.00;;;;4945224;28;88837;-66
2023/07/23 07:03:18;;;;;;;2.60;1.45;;;21.40;81.20;21.80;100155.00;;;;4944070;28;109571;-65
2023/07/23 07:05:43;;;;;;;1.48;1.23;;;21.60;80.90;21.90;100148.00;;;;4943367;28;88040;-64
2023/07/23 07:08:09;;;;;;;1.80;0.90;;;21.60;80.10;22.00;100152.00;;;;4943447;28;117722;-65
2023/07/23 07:10:35;;;;;;;0.60;0.57;;;21.70;79.40;22.10;100149.00;;;;4944200;28;98712;-65
2023/07/23 07:13:00;;;;;;;1.40;0.98;;;21.80;79.00;22.10;100151.00;;;;4945105;28;108018;-65
2023/07/23 07:15:26;;;;;;;4.75;1.00;;;21.90;78.10;22.20;100152.00;;;;4944397;28;114459;-65
2023/07/23 07:17:52;;;;;;;1.25;0.98;;;21.90;77.30;22.20;100148.00;;;;4944674;28;116621;-65
2023/07/23 07:20:17;;;;;;;1.55;1.33;;;22.00;77.40;22.20;100151.00;;;;4943615;28;110336;-65
2023/07/23 07:22:43;;;;;;;1.85;0.90;;;22.00;76.90;22.30;100142.00;;;;4948065;28;107656;-64
2023/07/23 07:25:09;;;;;;;2.20;1.50;;;22.00;76.70;22.30;100144.00;;;;4944999;28;117355;-65
2023/07/23 07:27:34;;;;;;;1.65;1.55;;;22.10;76.00;22.30;100139.00;;;;4943029;28;117308;-65
2023/07/23 07:30:00;;;;;;;1.38;1.27;;;22.10;75.60;22.30;100140.00;;;;4948156;28;110588;-65
2023/07/23 07:32:32;;;;;;;1.02;0.70;;;22.10;75.30;22.40;100137.00;;;;4947244;28;108408;-64
2023/07/23 07:35:01;;;;;;;1.55;0.95;;;22.10;74.90;22.50;100134.00;;;;4949656;28;115366;-65
2023/07/23 07:37:27;;;;;;;1.88;1.30;;;22.20;74.60;22.50;100137.00;;;;4948173;28;103183;-64
2023/07/23 07:39:52;;;;;;;2.08;1.30;;;22.30;74.10;22.60;100136.00;;;;4945373;28;87903;-65
2023/07/23 07:42:18;;;;;;;1.10;0.98;;;22.30;73.60;22.70;100129.00;;;;4948348;28;108465;-65
2023/07/23 07:44:44;;;;;;;3.47;1.42;;;22.40;73.40;22.90;100130.00;;;;4950900;28;118994;-64
2023/07/23 07:47:10;;;;;;;2.35;1.15;;;22.60;73.40;23.10;100129.00;;;;4948845;28;88101;-65
2023/07/23 07:49:35;;;;;;;1.52;1.42;;;22.70;73.30;23.30;100119.00;;;;4949491;28;88494;-66
2023/07/23 07:52:01;;;;;;;1.92;1.27;;;22.90;72.00;23.50;100126.00;;;;4945633;28;107518;-66
2023/07/23 07:54:27;;;;;;;0.90;0.90;;;23.10;71.40;23.70;100122.00;;;;4945812;28;117378;-65
2023/07/23 07:56:54;;;;;;;10.55;6.20;;;23.30;70.70;23.90;100117.00;;;;4946479;28;88500;-65
2023/07/23 07:59:20;;;;;;;2.88;2.45;;;23.50;69.40;24.10;100111.00;;;;4947923;28;87330;-67
2023/07/23 08:01:46;;;;;;;2.63;1.23;;;23.70;68.10;24.20;100119.00;;;;4950060;28;97228;-66
2023/07/23 08:04:12;;;;;;;2.20;1.40;;;23.90;67.20;24.30;100117.00;;;;4948947;28;109772;-66
2023/07/23 08:06:39;;;;;;;3.35;1.70;;;24.00;67.00;24.40;100111.00;;;;4949021;28;109723;-66
2023/07/23 08:09:08;;;;;;;2.72;1.33;;;24.10;66.30;24.50;100114.00;;;;4950308;28;88201;-66
2023/07/23 08:11:36;;;;;;;1.77;1.20;;;24.20;65.60;24.50;100117.00;;;;4945551;28;100322;-66
2023/07/23 08:14:03;;;;;;;7.05;1.90;;;24.30;63.80;24.60;100118.00;;;;4953272;28;108626;-66
2023/07/23 08:16:30;;;;;;;1.15;1.08;;;24.30;64.20;24.60;100117.00;;;;4945329;28;87709;-65
2023/07/23 08:18:56;;;;;;;1.30;1.17;;;24.30;62.70;24.60;100117.00;;;;4958194;28;101674;-66
2023/07/23 08:21:23;;;;;;;0.80;0.80;;;24.30;62.00;24.50;100117.00;;;;4950973;28;88399;-66
2023/07/23 08:23:49;;;;;;;1.30;0.95;;;24.30;62.30;24.50;100113.00;;;;4948091;28;87572;-66
2023/07/23 08:26:20;;;;;;;1.33;0.88;;;24.30;62.50;24.50;100105.00;;;;4946203;28;88071;-66
2023/07/23 08:28:51;;;;;;;14.30;1.23;;;24.30;61.60;24.50;100107.00;;;;4949074;28;88030;-66
2023/07/23 08:31:21;;;;;;;2.75;1.30;;;24.20;61.00;24.60;100109.00;;;;4975766;28;88853;-66
2023/07/23 08:33:48;;;;;;;1.58;1.48;;;24.30;61.20;24.80;100096.00;;;;4931104;28;88058;-66
2023/07/23 08:36:16;;;;;;;1.50;1.23;;;24.40;60.80;25.10;100099.00;;;;4948443;28;88203;-66
2023/07/23 08:38:42;;;;;;;1.65;1.30;;;24.70;60.90;25.40;100102.00;;;;4950811;28;87706;-66
2023/07/23 08:41:24;;;;;;;0.98;0.75;;;25.00;59.10;25.70;100089.00;;;;4946292;28;102213;-65
2023/07/23 08:44:34;;;;;;;1.17;1.08;;;25.30;58.80;26.00;100091.00;;;;4948426;28;88761;-66
2023/07/23 08:47:12;;;;;;;2.35;1.45;;;25.50;58.30;26.20;100099.00;;;;4977468;28;88134;-66
2023/07/23 08:49:42;;;;;;;1.65;0.85;;;25.80;56.30;26.30;100090.00;;;;4949180;28;87414;-66
2023/07/23 08:52:12;;;;;;;2.35;1.15;;;25.90;55.60;26.40;100087.00;;;;4948794;28;88216;-66
2023/07/23 08:54:39;;;;;;;2.65;1.05;;;26.10;55.60;26.60;100075.00;;;;4944941;28;88306;-66
2023/07/23 08:57:06;;;;;;;2.92;0.85;;;26.20;54.90;26.80;100074.00;;;;4945743;28;105570;-67
2023/07/23 08:59:33;;;;;;;2.35;1.33;;;26.40;54.40;26.90;100067.00;;;;4943636;28;91463;-66
2023/07/23 09:02:01;;;;;;;1.95;0.98;;;26.50;53.70;27.10;100069.00;;;;4944748;28;87991;-68
2023/07/23 09:04:28;;;;;;;1.73;0.93;;;26.80;53.50;27.30;100073.00;;;;4945558;28;88153;-68
2023/07/23 09:06:57;;;;;;;1.42;0.80;;;27.00;53.20;27.60;100069.00;;;;4945161;28;103633;-69
2023/07/23 09:09:24;;;;;;;0.77;0.77;;;27.20;53.20;27.90;100060.00;;;;4946571;28;87879;-69
2023/07/23 09:11:49;;;;;;;1.45;0.98;;;27.50;52.60;28.20;100048.00;;;;4947457;28;88968;-69
2023/07/23 09:14:16;;;;;;;1.58;1.05;;;27.80;51.00;28.50;100051.00;;;;4946316;28;102700;-67
2023/07/23 09:16:48;;;;;;;2.47;1.23;;;28.00;48.40;28.60;100054.00;;;;4945881;28;87992;-69
2023/07/23 09:19:26;;;;;;;1.67;1.17;;;28.20;46.30;28.70;100050.00;;;;4948409;28;87876;-66
2023/07/23 09:21:59;;;;;;;0.95;0.63;;;28.30;45.30;28.70;100060.00;;;;4947243;28;89860;-67
2023/07/23 09:24:33;;;;;;;0.57;0.57;;;28.40;44.30;28.80;100055.00;;;;4945352;28;89150;-67
2023/07/23 09:27:03;;;;;;;1.63;1.13;;;28.50;44.70;28.80;100060.00;;;;4943770;28;88020;-67
2023/07/23 09:29:38;;;;;;;1.23;0.55;;;28.50;43.20;28.60;100055.00;;;;4941472;28;100079;-68
2023/07/23 09:32:04;;;;;;;1.55;1.23;;;28.40;43.10;28.40;100057.00;;;;4943480;28;87662;-68
2023/07/23 09:34:30;;;;;;;0.93;0.70;;;28.20;43.60;28.30;100059.00;;;;4945443;28;94653;-68
2023/07/23 09:36:56;;;;;;;1.48;1.08;;;28.10;44.00;28.40;100049.00;;;;4944710;28;116399;-68
2023/07/23 09:39:27;;;;;;;1.58;1.05;;;28.10;44.40;28.60;100053.00;;;;4946747;28;110784;-68
2023/07/23 09:42:03;;;;;;;2.10;0.90;;;28.20;44.10;28.70;100041.00;;;;4945722;28;87924;-68
2023/07/23 09:44:29;;;;;;;1.23;0.88;;;28.40;44.00;29.00;100046.00;;;;4946655;28;88078;-68
2023/07/23 09:46:58;;;;;;;1.75;1.02;;;28.50;44.10;29.20;100046.00;;;;4948424;28;117391;-67
2023/07/23 09:49:30;;;;;;;1.48;0.95;;;28.80;43.60;29.30;100041.00;;;;4949708;28;88086;-68
2023/07/23 09:51:55;;;;;;;2.05;1.17;;;28.90;42.20;29.30;100035.00;;;;4947618;28;109354;-67
2023/07/23 09:54:22;;;;;;;1.15;0.95;;;29.00;42.20;29.40;100029.00;;;;4947677;28;104362;-68
2023/07/23 09:56:51;;;;;;;0.95;0.57;;;29.10;42.60;29.60;100025.00;;;;4948052;28;109434;-68
2023/07/23 09:59:17;;;;;;;1.15;0.73;;;29.20;42.00;29.80;100034.00;;;;4949548;28;88144;-68
2023/07/23 10:01:43;;;;;;;1.20;0.88;;;29.40;41.90;30.00;100010.00;;;;4946069;28;88467;-67
2023/07/23 10:04:11;;;;;;;1.45;0.85;;;29.50;41.00;30.20;100017.00;;;;4947512;28;116241;-67
2023/07/23 10:06:37;;;;;;;1.25;0.95;;;29.70;40.80;30.30;100035.00;;;;4946603;28;87805;-67
2023/07/23 10:09:03;;;;;;;0.70;0.70;;;29.90;39.70;30.20;100012.00;;;;4947579;28;100132;-66
2023/07/23 10:11:29;;;;;;;1.63;1.25;;;29.90;39.10;30.20;100019.00;;;;4946978;28;88767;-67
2023/07/23 10:13:56;;;;;;;1.10;0.98;;;29.90;39.30;30.30;100016.00;;;;4945175;28;110035;-66
2023/07/23 10:16:28;;;;;;;1.92;1.13;;;29.90;39.30;30.20;100000.00;;;;4944853;28;88757;-67
2023/07/23 10:18:57;;;;;;;0.75;0.50;;;29.90;38.80;30.20;100003.00;;;;4940974;28;87991;-68
2023/07/23 10:21:23;;;;;;;1.80;0.60;;;29.90;39.20;30.10;100008.00;;;;4933306;28;89706;-67
2023/07/23 10:23:57;;;;;;;4.03;1.00;;;29.80;38.40;29.90;100006.00;;;;4950279;28;116435;-68
2023/07/23 10:26:27;;;;;;;1.75;0.57;;;29.70;38.30;29.80;100018.00;;;;4945985;28;88352;-67
2023/07/23 10:29:12;;;;;;;0.70;0.70;;;29.50;38.60;29.80;100012.00;;;;4944929;28;90339;-68
2023/07/23 10:31:40;;;;;;;0.85;0.80;;;29.40;39.00;30.00;100003.00;;;;4950380;28;87781;-68
2023/07/23 10:34:26;;;;;;;3.25;1.30;;;29.50;39.20;30.20;99994.00;;;;4948229;28;90180;-66
2023/07/23 10:37:21;;;;;;;0.73;0.73;;;29.70;39.20;30.40;100019.00;;;;4946821;28;88683;-68
2023/07/23 10:39:50;;;;;;;2.40;0.80;;;29.90;37.20;30.40;100003.00;;;;4929665;28;87909;-67
2023/07/23 10:42:28;;;;;;;1.95;1.13;;;30.00;37.10;30.50;99993.00;;;;4946734;28;88213;-68